sensor_id;sensor_type;location;lat;lon;timestamp;pressure;altitude;pressure_sealevel;temperature;humidity
78206;BME280;67480;48.920;12.880;2023-02-27T00:00:14;97442.03;;;-1.26;52.30
78206;BME280;67480;48.920;12.880;2023-02-27T00:02:44;97439.38;;;-1.26;53.21
78206;BME280;67480;48.920;12.880;2023-02-27T00:05:10;97435.56;;;-1.30;52.68
78206;BME280;67480;48.920;12.880;2023-02-27T00:07:36;97439.44;;;-1.33;53.04
78206;BME280;67480;48.920;12.880;2023-02-27T00:10:02;97441.78;;;-1.25;52.98
78206;BME280;67480;48.920;12.880;2023-02-27T00:12:28;97446.69;;;-1.28;52.33
78206;BME280;67480;48.920;12.880;2023-02-27T00:14:55;97447.44;;;-1.21;52.93
78206;BME280;67480;48.920;12.880;2023-02-27T00:17:20;97447.69;;;-1.11;52.38
78206;BME280;67480;48.920;12.880;2023-02-27T00:19:45;97446.31;;;-1.01;52.74
78206;BME280;67480;48.920;12.880;2023-02-27T00:22:10;97450.84;;;-0.90;52.01
78206;BME280;67480;48.920;12.880;2023-02-27T00:24:36;97450.38;;;-0.75;51.63
78206;BME280;67480;48.920;12.880;2023-02-27T00:27:01;97446.94;;;-0.64;52.05
78206;BME280;67480;48.920;12.880;2023-02-27T00:29:26;97454.53;;;-0.56;51.77
78206;BME280;67480;48.920;12.880;2023-02-27T00:31:52;97451.66;;;-0.54;51.51
78206;BME280;67480;48.920;12.880;2023-02-27T00:34:18;97450.88;;;-0.43;50.99
78206;BME280;67480;48.920;12.880;2023-02-27T00:36:43;97457.19;;;-0.56;50.90
78206;BME280;67480;48.920;12.880;2023-02-27T00:39:08;97456.16;;;-0.43;50.93
78206;BME280;67480;48.920;12.880;2023-02-27T00:41:34;97450.63;;;-0.41;51.38
78206;BME280;67480;48.920;12.880;2023-02-27T00:43:59;97446.50;;;-0.49;51.23
78206;BME280;67480;48.920;12.880;2023-02-27T00:46:24;97446.81;;;-0.81;51.65
78206;BME280;67480;48.920;12.880;2023-02-27T00:48:50;97452.47;;;-0.65;52.01
78206;BME280;67480;48.920;12.880;2023-02-27T00:51:15;97453.72;;;-0.56;51.91
78206;BME280;67480;48.920;12.880;2023-02-27T00:53:40;97457.88;;;-0.49;51.61
78206;BME280;67480;48.920;12.880;2023-02-27T00:56:06;97457.41;;;-0.57;52.61
78206;BME280;67480;48.920;12.880;2023-02-27T00:58:32;97453.75;;;-0.44;51.42
78206;BME280;67480;48.920;12.880;2023-02-27T01:01:00;97456.38;;;-0.33;51.02
78206;BME280;67480;48.920;12.880;2023-02-27T01:03:25;97456.59;;;-0.22;50.86
78206;BME280;67480;48.920;12.880;2023-02-27T01:05:51;97449.69;;;-0.12;50.53
78206;BME280;67480;48.920;12.880;2023-02-27T01:08:16;97453.38;;;-0.24;50.56
78206;BME280;67480;48.920;12.880;2023-02-27T01:10:42;97452.72;;;-0.32;50.27
78206;BME280;67480;48.920;12.880;2023-02-27T01:13:08;97459.47;;;-0.36;51.06
78206;BME280;67480;48.920;12.880;2023-02-27T01:15:33;97463.38;;;-0.38;50.51
78206;BME280;67480;48.920;12.880;2023-02-27T01:17:58;97463.50;;;-0.45;51.04
78206;BME280;67480;48.920;12.880;2023-02-27T01:20:24;97457.59;;;-0.82;49.94
78206;BME280;67480;48.920;12.880;2023-02-27T01:22:49;97451.66;;;-0.42;49.72
78206;BME280;67480;48.920;12.880;2023-02-27T01:25:15;97462.13;;;-0.47;50.92
78206;BME280;67480;48.920;12.880;2023-02-27T01:27:41;97458.31;;;-0.52;51.49
78206;BME280;67480;48.920;12.880;2023-02-27T01:30:07;97461.31;;;-0.60;50.33
78206;BME280;67480;48.920;12.880;2023-02-27T01:32:34;97454.31;;;-0.54;50.81
78206;BME280;67480;48.920;12.880;2023-02-27T01:35:00;97465.69;;;-0.54;49.81
78206;BME280;67480;48.920;12.880;2023-02-27T01:37:25;97466.47;;;-0.53;49.23
78206;BME280;67480;48.920;12.880;2023-02-27T01:39:50;97464.53;;;-0.46;50.54
78206;BME280;67480;48.920;12.880;2023-02-27T01:42:24;97476.03;;;-0.52;50.41
78206;BME280;67480;48.920;12.880;2023-02-27T01:45:14;97472.59;;;-0.53;49.70
78206;BME280;67480;48.920;12.880;2023-02-27T01:48:15;97470.97;;;-0.42;49.97
78206;BME280;67480;48.920;12.880;2023-02-27T01:50:47;97475.91;;;-0.34;49.29
78206;BME280;67480;48.920;12.880;2023-02-27T01:53:14;97467.88;;;-0.39;49.78
78206;BME280;67480;48.920;12.880;2023-02-27T01:55:41;97476.38;;;-0.37;50.06
78206;BME280;67480;48.920;12.880;2023-02-27T01:58:09;97465.44;;;-0.28;49.16
78206;BME280;67480;48.920;12.880;2023-02-27T02:00:35;97461.53;;;-0.26;49.55
78206;BME280;67480;48.920;12.880;2023-02-27T02:06:05;97476.25;;;-0.42;50.30
78206;BME280;67480;48.920;12.880;2023-02-27T02:08:35;97467.75;;;-0.32;50.84
78206;BME280;67480;48.920;12.880;2023-02-27T02:11:02;97474.06;;;-0.45;50.89
78206;BME280;67480;48.920;12.880;2023-02-27T02:13:27;97477.53;;;-0.44;50.95
78206;BME280;67480;48.920;12.880;2023-02-27T02:28:07;97490.06;;;-0.28;50.04
78206;BME280;67480;48.920;12.880;2023-02-27T02:48:51;97482.59;;;-0.31;51.38
78206;BME280;67480;48.920;12.880;2023-02-27T02:51:40;97483.97;;;-0.40;51.00
78206;BME280;67480;48.920;12.880;2023-02-27T02:54:28;97487.19;;;-0.38;51.06
78206;BME280;67480;48.920;12.880;2023-02-27T02:57:18;97489.72;;;-0.32;50.94
78206;BME280;67480;48.920;12.880;2023-02-27T02:59:55;97485.13;;;-0.36;51.30
78206;BME280;67480;48.920;12.880;2023-02-27T03:02:26;97493.53;;;-0.39;51.76
78206;BME280;67480;48.920;12.880;2023-02-27T03:04:59;97492.00;;;-0.71;51.91
78206;BME280;67480;48.920;12.880;2023-02-27T03:07:33;97488.56;;;-0.59;52.20
78206;BME280;67480;48.920;12.880;2023-02-27T03:10:05;97489.34;;;-0.71;52.48
78206;BME280;67480;48.920;12.880;2023-02-27T03:12:32;97486.38;;;-0.51;52.76
78206;BME280;67480;48.920;12.880;2023-02-27T03:15:21;97494.75;;;-0.65;53.81
78206;BME280;67480;48.920;12.880;2023-02-27T03:20:30;97497.06;;;-0.45;54.11
78206;BME280;67480;48.920;12.880;2023-02-27T03:23:00;97499.13;;;-0.59;54.26
78206;BME280;67480;48.920;12.880;2023-02-27T03:25:29;97495.78;;;-0.55;54.10
78206;BME280;67480;48.920;12.880;2023-02-27T03:28:00;97494.44;;;-0.57;53.48
78206;BME280;67480;48.920;12.880;2023-02-27T03:30:49;97497.63;;;-0.55;53.38
78206;BME280;67480;48.920;12.880;2023-02-27T03:33:21;97497.19;;;-0.52;53.15
78206;BME280;67480;48.920;12.880;2023-02-27T03:36:08;97498.31;;;-0.48;52.66
78206;BME280;67480;48.920;12.880;2023-02-27T03:38:39;97505.34;;;-0.42;52.59
78206;BME280;67480;48.920;12.880;2023-02-27T03:41:33;97498.78;;;-0.63;52.12
78206;BME280;67480;48.920;12.880;2023-02-27T03:44:09;97503.50;;;-0.65;51.83
78206;BME280;67480;48.920;12.880;2023-02-27T03:46:35;97501.78;;;-0.59;52.11
78206;BME280;67480;48.920;12.880;2023-02-27T03:49:01;97500.97;;;-0.48;51.63
78206;BME280;67480;48.920;12.880;2023-02-27T03:51:27;97505.94;;;-0.40;51.37
78206;BME280;67480;48.920;12.880;2023-02-27T03:54:00;97507.19;;;-0.31;50.61
78206;BME280;67480;48.920;12.880;2023-02-27T03:56:38;97509.94;;;-0.49;51.45
78206;BME280;67480;48.920;12.880;2023-02-27T03:59:05;97510.75;;;-0.49;51.06
78206;BME280;67480;48.920;12.880;2023-02-27T04:01:31;97516.50;;;-0.52;51.25
78206;BME280;67480;48.920;12.880;2023-02-27T04:04:01;97510.28;;;-0.57;52.26
78206;BME280;67480;48.920;12.880;2023-02-27T04:06:30;97519.47;;;-0.60;52.18
78206;BME280;67480;48.920;12.880;2023-02-27T04:09:40;97519.22;;;-0.82;52.46
78206;BME280;67480;48.920;12.880;2023-02-27T04:20:57;97521.75;;;-0.63;52.03
78206;BME280;67480;48.920;12.880;2023-02-27T04:23:41;97519.81;;;-0.56;52.28
78206;BME280;67480;48.920;12.880;2023-02-27T04:26:20;97515.25;;;-0.49;51.79
78206;BME280;67480;48.920;12.880;2023-02-27T04:29:17;97520.16;;;-0.64;51.24
78206;BME280;67480;48.920;12.880;2023-02-27T04:31:49;97514.84;;;-0.64;50.65
78206;BME280;67480;48.920;12.880;2023-02-27T04:37:09;97528.22;;;-0.59;50.64
78206;BME280;67480;48.920;12.880;2023-02-27T04:39:51;97529.56;;;-0.80;50.66
78206;BME280;67480;48.920;12.880;2023-02-27T04:42:24;97524.03;;;-0.79;49.95
78206;BME280;67480;48.920;12.880;2023-02-27T04:44:53;97529.69;;;-0.63;49.65
78206;BME280;67480;48.920;12.880;2023-02-27T04:47:21;97535.78;;;-0.63;49.59
78206;BME280;67480;48.920;12.880;2023-02-27T04:49:59;97530.81;;;-0.71;49.69
78206;BME280;67480;48.920;12.880;2023-02-27T04:52:35;97530.81;;;-0.71;49.06
78206;BME280;67480;48.920;12.880;2023-02-27T04:55:11;97534.75;;;-0.74;48.63
78206;BME280;67480;48.920;12.880;2023-02-27T04:57:45;97525.06;;;-0.80;48.75
78206;BME280;67480;48.920;12.880;2023-02-27T05:00:12;97541.03;;;-0.87;49.15
78206;BME280;67480;48.920;12.880;2023-02-27T05:02:42;97547.00;;;-0.79;49.18
78206;BME280;67480;48.920;12.880;2023-02-27T05:05:13;97542.28;;;-0.77;49.18
78206;BME280;67480;48.920;12.880;2023-02-27T05:07:51;97537.84;;;-0.65;48.57
78206;BME280;67480;48.920;12.880;2023-02-27T05:10:52;97538.63;;;-0.76;48.75
78206;BME280;67480;48.920;12.880;2023-02-27T05:13:33;97539.66;;;-0.77;48.76
78206;BME280;67480;48.920;12.880;2023-02-27T05:16:08;97542.38;;;-0.84;48.30
78206;BME280;67480;48.920;12.880;2023-02-27T05:18:35;97545.44;;;-0.69;48.40
78206;BME280;67480;48.920;12.880;2023-02-27T05:24:01;97548.19;;;-0.75;48.75
78206;BME280;67480;48.920;12.880;2023-02-27T05:29:32;97551.03;;;-0.77;47.86
78206;BME280;67480;48.920;12.880;2023-02-27T05:32:08;97545.97;;;-0.90;48.95
78206;BME280;67480;48.920;12.880;2023-02-27T05:34:45;97550.22;;;-0.77;47.92
78206;BME280;67480;48.920;12.880;2023-02-27T05:37:19;97543.00;;;-0.70;47.74
78206;BME280;67480;48.920;12.880;2023-02-27T05:39:48;97551.16;;;-0.83;48.19
78206;BME280;67480;48.920;12.880;2023-02-27T05:42:21;97548.09;;;-0.99;48.01
78206;BME280;67480;48.920;12.880;2023-02-27T05:44:52;97551.72;;;-0.81;48.17
78206;BME280;67480;48.920;12.880;2023-02-27T05:47:22;97551.47;;;-0.92;47.99
78206;BME280;67480;48.920;12.880;2023-02-27T05:50:08;97558.00;;;-0.94;47.65
78206;BME280;67480;48.920;12.880;2023-02-27T05:52:36;97561.28;;;-0.80;47.92
78206;BME280;67480;48.920;12.880;2023-02-27T05:57:39;97553.50;;;-0.94;48.98
78206;BME280;67480;48.920;12.880;2023-02-27T06:00:20;97563.59;;;-1.02;48.08
78206;BME280;67480;48.920;12.880;2023-02-27T06:02:47;97563.84;;;-0.92;47.90
78206;BME280;67480;48.920;12.880;2023-02-27T06:05:14;97559.63;;;-0.93;48.66
78206;BME280;67480;48.920;12.880;2023-02-27T06:07:40;97557.84;;;-0.99;48.58
78206;BME280;67480;48.920;12.880;2023-02-27T06:10:05;97564.38;;;-1.02;48.67
78206;BME280;67480;48.920;12.880;2023-02-27T06:12:31;97572.94;;;-0.88;47.97
78206;BME280;67480;48.920;12.880;2023-02-27T06:14:56;97567.97;;;-0.96;48.76
78206;BME280;67480;48.920;12.880;2023-02-27T06:17:21;97572.50;;;-0.85;48.11
78206;BME280;67480;48.920;12.880;2023-02-27T06:19:47;97573.53;;;-0.86;48.62
78206;BME280;67480;48.920;12.880;2023-02-27T06:22:12;97563.06;;;-0.93;47.42
78206;BME280;67480;48.920;12.880;2023-02-27T06:24:38;97568.59;;;-0.82;48.25
78206;BME280;67480;48.920;12.880;2023-02-27T06:27:03;97569.53;;;-0.77;47.94
78206;BME280;67480;48.920;12.880;2023-02-27T06:29:28;97577.25;;;-0.75;48.29
78206;BME280;67480;48.920;12.880;2023-02-27T06:31:54;97582.84;;;-0.83;48.29
78206;BME280;67480;48.920;12.880;2023-02-27T06:34:19;97578.03;;;-1.05;48.90
78206;BME280;67480;48.920;12.880;2023-02-27T06:36:44;97582.31;;;-1.04;48.09
78206;BME280;67480;48.920;12.880;2023-02-27T06:39:10;97573.94;;;-1.01;48.10
78206;BME280;67480;48.920;12.880;2023-02-27T06:41:36;97578.03;;;-1.05;47.31
78206;BME280;67480;48.920;12.880;2023-02-27T06:44:01;97570.41;;;-0.95;47.87
78206;BME280;67480;48.920;12.880;2023-02-27T06:46:26;97567.56;;;-1.12;47.05
78206;BME280;67480;48.920;12.880;2023-02-27T06:48:52;97575.03;;;-1.09;47.76
78206;BME280;67480;48.920;12.880;2023-02-27T06:51:17;97578.56;;;-1.15;46.97
78206;BME280;67480;48.920;12.880;2023-02-27T06:53:42;97580.41;;;-1.15;47.88
78206;BME280;67480;48.920;12.880;2023-02-27T06:56:08;97586.34;;;-1.01;47.18
78206;BME280;67480;48.920;12.880;2023-02-27T06:58:33;97590.03;;;-1.21;47.09
78206;BME280;67480;48.920;12.880;2023-02-27T07:00:58;97589.75;;;-1.68;47.81
78206;BME280;67480;48.920;12.880;2023-02-27T07:03:25;97584.56;;;-1.56;47.68
78206;BME280;67480;48.920;12.880;2023-02-27T07:05:50;97587.69;;;-1.66;47.49
78206;BME280;67480;48.920;12.880;2023-02-27T07:08:16;97591.00;;;-1.34;47.47
78206;BME280;67480;48.920;12.880;2023-02-27T07:10:42;97592.47;;;-1.19;47.64
78206;BME280;67480;48.920;12.880;2023-02-27T07:13:11;97590.00;;;-1.02;46.56
78206;BME280;67480;48.920;12.880;2023-02-27T07:15:36;97593.31;;;-1.07;46.17
78206;BME280;67480;48.920;12.880;2023-02-27T07:18:02;97597.22;;;-1.28;46.50
78206;BME280;67480;48.920;12.880;2023-02-27T07:20:27;97594.66;;;-0.86;47.14
78206;BME280;67480;48.920;12.880;2023-02-27T07:22:53;97603.06;;;-0.77;46.34
78206;BME280;67480;48.920;12.880;2023-02-27T07:25:18;97599.66;;;-0.66;46.27
78206;BME280;67480;48.920;12.880;2023-02-27T07:27:43;97602.63;;;-1.23;45.80
78206;BME280;67480;48.920;12.880;2023-02-27T07:30:10;97606.63;;;-1.32;46.43
78206;BME280;67480;48.920;12.880;2023-02-27T07:32:36;97599.16;;;-1.05;46.00
78206;BME280;67480;48.920;12.880;2023-02-27T07:35:01;97595.75;;;-0.75;45.13
78206;BME280;67480;48.920;12.880;2023-02-27T07:37:28;97596.84;;;-0.53;45.27
78206;BME280;67480;48.920;12.880;2023-02-27T07:39:53;97605.81;;;-1.14;44.72
78206;BME280;67480;48.920;12.880;2023-02-27T07:42:18;97601.31;;;-0.53;45.11
78206;BME280;67480;48.920;12.880;2023-02-27T07:44:44;97614.28;;;-0.63;44.39
78206;BME280;67480;48.920;12.880;2023-02-27T07:47:09;97610.31;;;-0.42;44.38
78206;BME280;67480;48.920;12.880;2023-02-27T07:49:35;97613.81;;;-0.30;43.75
78206;BME280;67480;48.920;12.880;2023-02-27T07:52:00;97612.66;;;-0.11;43.20
78206;BME280;67480;48.920;12.880;2023-02-27T07:54:26;97610.16;;;-0.05;42.95
78206;BME280;67480;48.920;12.880;2023-02-27T07:56:51;97607.16;;;0.38;42.18
78206;BME280;67480;48.920;12.880;2023-02-27T07:59:17;97614.16;;;-0.15;42.97
78206;BME280;67480;48.920;12.880;2023-02-27T08:01:42;97614.66;;;0.30;42.78
78206;BME280;67480;48.920;12.880;2023-02-27T08:04:07;97625.25;;;0.30;42.46
78206;BME280;67480;48.920;12.880;2023-02-27T08:06:33;97621.09;;;0.10;42.94
78206;BME280;67480;48.920;12.880;2023-02-27T08:08:58;97623.97;;;0.20;42.13
78206;BME280;67480;48.920;12.880;2023-02-27T08:11:23;97627.06;;;0.65;42.23
78206;BME280;67480;48.920;12.880;2023-02-27T08:13:49;97624.06;;;-0.10;42.16
78206;BME280;67480;48.920;12.880;2023-02-27T08:16:14;97626.97;;;0.12;42.06
78206;BME280;67480;48.920;12.880;2023-02-27T08:18:39;97634.44;;;0.62;42.91
78206;BME280;67480;48.920;12.880;2023-02-27T08:21:05;97635.03;;;0.65;41.20
78206;BME280;67480;48.920;12.880;2023-02-27T08:23:31;97631.41;;;0.83;40.49
78206;BME280;67480;48.920;12.880;2023-02-27T08:25:56;97639.06;;;1.08;40.53
78206;BME280;67480;48.920;12.880;2023-02-27T08:28:23;97636.06;;;1.33;40.71
78206;BME280;67480;48.920;12.880;2023-02-27T08:30:49;97628.78;;;1.86;38.88
78206;BME280;67480;48.920;12.880;2023-02-27T08:33:14;97635.22;;;2.07;38.94
78206;BME280;67480;48.920;12.880;2023-02-27T08:35:39;97634.06;;;2.54;38.49
78206;BME280;67480;48.920;12.880;2023-02-27T08:38:05;97644.97;;;2.96;36.60
78206;BME280;67480;48.920;12.880;2023-02-27T08:40:30;97639.03;;;3.33;36.25
78206;BME280;67480;48.920;12.880;2023-02-27T08:42:55;97652.56;;;3.54;35.90
78206;BME280;67480;48.920;12.880;2023-02-27T08:45:21;97651.16;;;3.73;34.75
78206;BME280;67480;48.920;12.880;2023-02-27T08:47:46;97648.56;;;3.29;36.51
78206;BME280;67480;48.920;12.880;2023-02-27T08:50:11;97660.53;;;3.54;35.34
78206;BME280;67480;48.920;12.880;2023-02-27T08:52:37;97655.81;;;3.88;34.23
78206;BME280;67480;48.920;12.880;2023-02-27T08:55:03;97661.69;;;4.23;34.34
78206;BME280;67480;48.920;12.880;2023-02-27T08:57:29;97669.13;;;4.21;33.23
78206;BME280;67480;48.920;12.880;2023-02-27T08:59:54;97672.06;;;3.60;33.93
78206;BME280;67480;48.920;12.880;2023-02-27T09:02:19;97682.47;;;3.61;34.94
78206;BME280;67480;48.920;12.880;2023-02-27T09:04:47;97680.47;;;3.29;35.44
78206;BME280;67480;48.920;12.880;2023-02-27T09:07:13;97686.19;;;2.77;35.89
78206;BME280;67480;48.920;12.880;2023-02-27T09:09:38;97683.28;;;1.77;36.74
78206;BME280;67480;48.920;12.880;2023-02-27T09:12:04;97675.25;;;1.71;38.10
78206;BME280;67480;48.920;12.880;2023-02-27T09:14:29;97677.88;;;1.14;38.04
78206;BME280;67480;48.920;12.880;2023-02-27T09:16:55;97672.25;;;1.10;39.24
78206;BME280;67480;48.920;12.880;2023-02-27T09:19:20;97682.22;;;1.32;38.13
78206;BME280;67480;48.920;12.880;2023-02-27T09:21:46;97683.50;;;1.58;37.13
78206;BME280;67480;48.920;12.880;2023-02-27T09:24:11;97690.69;;;1.75;37.70
78206;BME280;67480;48.920;12.880;2023-02-27T09:26:36;97682.53;;;1.35;36.50
78206;BME280;67480;48.920;12.880;2023-02-27T09:29:02;97680.75;;;1.53;37.87
78206;BME280;67480;48.920;12.880;2023-02-27T09:31:27;97689.31;;;1.72;37.02
78206;BME280;67480;48.920;12.880;2023-02-27T09:33:53;97685.38;;;1.58;37.09
78206;BME280;67480;48.920;12.880;2023-02-27T09:36:21;97690.16;;;1.89;37.23
78206;BME280;67480;48.920;12.880;2023-02-27T09:38:46;97682.06;;;2.30;36.44
78206;BME280;67480;48.920;12.880;2023-02-27T09:44:31;97701.06;;;2.95;37.74
78206;BME280;67480;48.920;12.880;2023-02-27T09:46:59;97698.53;;;3.49;35.28
78206;BME280;67480;48.920;12.880;2023-02-27T09:49:32;97698.66;;;3.87;35.08
78206;BME280;67480;48.920;12.880;2023-02-27T09:51:59;97696.38;;;3.96;35.72
78206;BME280;67480;48.920;12.880;2023-02-27T09:54:30;97693.19;;;4.31;35.27
78206;BME280;67480;48.920;12.880;2023-02-27T09:57:01;97701.09;;;4.21;36.33
78206;BME280;67480;48.920;12.880;2023-02-27T09:59:38;97703.34;;;4.02;36.00
78206;BME280;67480;48.920;12.880;2023-02-27T10:02:35;97707.84;;;3.47;36.92
78206;BME280;67480;48.920;12.880;2023-02-27T10:10:07;97704.13;;;5.15;35.02
78206;BME280;67480;48.920;12.880;2023-02-27T10:13:18;97705.66;;;5.69;33.06
78206;BME280;67480;48.920;12.880;2023-02-27T10:15:52;97707.66;;;6.30;32.75
78206;BME280;67480;48.920;12.880;2023-02-27T10:18:39;97718.81;;;6.94;32.88
78206;BME280;67480;48.920;12.880;2023-02-27T10:21:11;97705.72;;;6.92;33.10
78206;BME280;67480;48.920;12.880;2023-02-27T10:23:42;97724.72;;;6.08;33.82
78206;BME280;67480;48.920;12.880;2023-02-27T10:26:18;97718.78;;;5.86;33.29
78206;BME280;67480;48.920;12.880;2023-02-27T10:28:44;97717.09;;;5.54;34.05
78206;BME280;67480;48.920;12.880;2023-02-27T10:31:20;97718.56;;;4.76;34.50
78206;BME280;67480;48.920;12.880;2023-02-27T10:33:47;97735.13;;;5.21;33.71
78206;BME280;67480;48.920;12.880;2023-02-27T10:36:14;97722.66;;;4.19;33.94
78206;BME280;67480;48.920;12.880;2023-02-27T10:38:42;97717.06;;;4.16;32.82
78206;BME280;67480;48.920;12.880;2023-02-27T10:41:10;97728.50;;;4.48;34.66
78206;BME280;67480;48.920;12.880;2023-02-27T10:43:37;97725.88;;;4.21;34.48
78206;BME280;67480;48.920;12.880;2023-02-27T10:46:09;97723.31;;;4.32;33.23
78206;BME280;67480;48.920;12.880;2023-02-27T10:48:36;97729.16;;;4.01;34.81
78206;BME280;67480;48.920;12.880;2023-02-27T10:54:21;97731.31;;;4.64;32.36
78206;BME280;67480;48.920;12.880;2023-02-27T10:56:50;97723.66;;;4.40;32.73
78206;BME280;67480;48.920;12.880;2023-02-27T10:59:19;97729.84;;;4.46;33.58
78206;BME280;67480;48.920;12.880;2023-02-27T11:01:48;97730.72;;;3.70;32.56
78206;BME280;67480;48.920;12.880;2023-02-27T11:04:22;97712.91;;;4.62;31.89
78206;BME280;67480;48.920;12.880;2023-02-27T11:06:51;97719.97;;;4.84;32.25
78206;BME280;67480;48.920;12.880;2023-02-27T11:09:24;97717.88;;;5.44;31.54
78206;BME280;67480;48.920;12.880;2023-02-27T11:11:50;97715.31;;;5.85;31.84
78206;BME280;67480;48.920;12.880;2023-02-27T11:14:27;97723.34;;;6.98;31.12
78206;BME280;67480;48.920;12.880;2023-02-27T11:16:58;97722.16;;;7.35;31.05
78206;BME280;67480;48.920;12.880;2023-02-27T11:19:30;97730.19;;;7.35;31.20
78206;BME280;67480;48.920;12.880;2023-02-27T11:22:18;97720.06;;;7.27;29.97
78206;BME280;67480;48.920;12.880;2023-02-27T11:24:45;97714.31;;;6.63;30.09
78206;BME280;67480;48.920;12.880;2023-02-27T11:27:23;97706.16;;;7.20;29.93
78206;BME280;67480;48.920;12.880;2023-02-27T11:30:00;97710.75;;;7.09;29.58
78206;BME280;67480;48.920;12.880;2023-02-27T11:32:42;97715.06;;;6.90;31.18
78206;BME280;67480;48.920;12.880;2023-02-27T11:37:47;97706.03;;;6.60;30.40
78206;BME280;67480;48.920;12.880;2023-02-27T11:40:15;97696.41;;;6.54;29.56
78206;BME280;67480;48.920;12.880;2023-02-27T11:42:47;97717.34;;;7.32;28.78
78206;BME280;67480;48.920;12.880;2023-02-27T11:47:48;97699.25;;;7.03;28.06
78206;BME280;67480;48.920;12.880;2023-02-27T11:50:36;97700.44;;;7.42;29.16
78206;BME280;67480;48.920;12.880;2023-02-27T11:55:59;97688.88;;;6.76;28.32
78206;BME280;67480;48.920;12.880;2023-02-27T11:58:29;97683.94;;;7.19;28.55
78206;BME280;67480;48.920;12.880;2023-02-27T12:01:04;97675.91;;;7.25;28.59
78206;BME280;67480;48.920;12.880;2023-02-27T12:06:26;97670.94;;;6.92;28.68
78206;BME280;67480;48.920;12.880;2023-02-27T12:08:59;97673.94;;;6.13;29.34
78206;BME280;67480;48.920;12.880;2023-02-27T12:11:55;97676.88;;;6.02;28.59
78206;BME280;67480;48.920;12.880;2023-02-27T12:14:29;97684.88;;;6.84;28.63
78206;BME280;67480;48.920;12.880;2023-02-27T12:20:00;97683.22;;;6.93;28.88
78206;BME280;67480;48.920;12.880;2023-02-27T12:22:35;97675.31;;;6.01;29.71
78206;BME280;67480;48.920;12.880;2023-02-27T12:25:20;97674.41;;;5.69;31.01
78206;BME280;67480;48.920;12.880;2023-02-27T12:28:05;97670.66;;;5.60;31.55
78206;BME280;67480;48.920;12.880;2023-02-27T12:30:41;97670.63;;;5.55;30.93
78206;BME280;67480;48.920;12.880;2023-02-27T12:35:35;97660.44;;;5.42;31.35
78206;BME280;67480;48.920;12.880;2023-02-27T12:38:01;97655.94;;;5.42;30.91
78206;BME280;67480;48.920;12.880;2023-02-27T12:40:35;97656.28;;;5.87;30.66
78206;BME280;67480;48.920;12.880;2023-02-27T12:48:51;97645.34;;;6.40;29.16
78206;BME280;67480;48.920;12.880;2023-02-27T12:51:42;97660.22;;;6.92;29.24
78206;BME280;67480;48.920;12.880;2023-02-27T12:54:35;97659.25;;;7.28;28.60
78206;BME280;67480;48.920;12.880;2023-02-27T13:03:03;97656.03;;;5.93;29.50
78206;BME280;67480;48.920;12.880;2023-02-27T13:05:46;97647.44;;;6.63;29.74
78206;BME280;67480;48.920;12.880;2023-02-27T13:08:29;97650.81;;;7.00;29.82
78206;BME280;67480;48.920;12.880;2023-02-27T13:13:59;97648.56;;;8.76;27.33
78206;BME280;67480;48.920;12.880;2023-02-27T13:16:34;97639.03;;;8.88;26.44
78206;BME280;67480;48.920;12.880;2023-02-27T13:19:11;97636.53;;;9.40;26.99
78206;BME280;67480;48.920;12.880;2023-02-27T13:21:54;97642.41;;;10.00;26.67
78206;BME280;67480;48.920;12.880;2023-02-27T13:26:59;97650.75;;;10.97;25.39
78206;BME280;67480;48.920;12.880;2023-02-27T13:29:37;97644.63;;;9.59;24.97
78206;BME280;67480;48.920;12.880;2023-02-27T13:32:13;97647.78;;;8.17;27.41
78206;BME280;67480;48.920;12.880;2023-02-27T13:34:48;97651.69;;;8.29;27.55
78206;BME280;67480;48.920;12.880;2023-02-27T13:37:16;97658.41;;;8.56;27.37
78206;BME280;67480;48.920;12.880;2023-02-27T13:44:52;97652.84;;;8.18;26.73
78206;BME280;67480;48.920;12.880;2023-02-27T13:47:38;97654.31;;;7.61;27.11
78206;BME280;67480;48.920;12.880;2023-02-27T13:52:49;97655.44;;;7.94;26.28
78206;BME280;67480;48.920;12.880;2023-02-27T13:55:29;97657.22;;;7.04;27.79
78206;BME280;67480;48.920;12.880;2023-02-27T13:57:57;97661.69;;;7.34;27.85
78206;BME280;67480;48.920;12.880;2023-02-27T14:00:25;97655.69;;;7.53;27.06
78206;BME280;67480;48.920;12.880;2023-02-27T14:03:06;97657.94;;;7.80;26.74
78206;BME280;67480;48.920;12.880;2023-02-27T14:05:38;97664.81;;;7.97;26.22
78206;BME280;67480;48.920;12.880;2023-02-27T14:08:14;97656.72;;;8.36;25.45
78206;BME280;67480;48.920;12.880;2023-02-27T14:16:10;97656.28;;;8.24;27.05
78206;BME280;67480;48.920;12.880;2023-02-27T14:18:51;97659.94;;;8.04;25.90
78206;BME280;67480;48.920;12.880;2023-02-27T14:24:35;97656.06;;;6.24;27.55
78206;BME280;67480;48.920;12.880;2023-02-27T14:27:13;97652.94;;;4.27;29.15
78206;BME280;67480;48.920;12.880;2023-02-27T14:29:42;97656.34;;;3.58;30.57
78206;BME280;67480;48.920;12.880;2023-02-27T14:32:18;97648.72;;;3.99;30.05
78206;BME280;67480;48.920;12.880;2023-02-27T14:34:44;97661.25;;;3.99;30.33
78206;BME280;67480;48.920;12.880;2023-02-27T14:37:14;97659.81;;;5.14;30.72
78206;BME280;67480;48.920;12.880;2023-02-27T14:39:41;97667.50;;;5.84;30.30
78206;BME280;67480;48.920;12.880;2023-02-27T14:44:40;97670.22;;;6.04;28.80
78206;BME280;67480;48.920;12.880;2023-02-27T14:47:31;97673.41;;;6.53;29.09
78206;BME280;67480;48.920;12.880;2023-02-27T14:49:57;97669.03;;;6.93;28.79
78206;BME280;67480;48.920;12.880;2023-02-27T14:52:31;97670.19;;;6.56;27.95
78206;BME280;67480;48.920;12.880;2023-02-27T14:57:31;97672.31;;;5.92;28.56
78206;BME280;67480;48.920;12.880;2023-02-27T14:59:56;97672.50;;;5.60;28.84
78206;BME280;67480;48.920;12.880;2023-02-27T15:02:27;97667.47;;;5.68;29.77
78206;BME280;67480;48.920;12.880;2023-02-27T15:05:12;97676.84;;;5.08;30.22
78206;BME280;67480;48.920;12.880;2023-02-27T15:07:42;97675.69;;;4.40;29.54
78206;BME280;67480;48.920;12.880;2023-02-27T15:10:09;97675.34;;;3.99;30.05
78206;BME280;67480;48.920;12.880;2023-02-27T15:12:41;97683.09;;;3.73;32.04
78206;BME280;67480;48.920;12.880;2023-02-27T15:15:07;97679.16;;;3.76;31.96